sensor_id;sensor_type;location;lat;lon;timestamp;P1;durP1;ratioP1;P2;durP2;ratioP2
45909;SDS011;31622;55.416;37.840;2023-10-09T22:11:35;14.10;;;4.40;;
45909;SDS011;31622;55.416;37.840;2023-10-09T22:14:01;19.45;;;4.28;;
45909;SDS011;31622;55.416;37.840;2023-10-09T22:16:26;9.77;;;4.07;;
45909;SDS011;31622;55.416;37.840;2023-10-09T22:18:52;7.00;;;3.45;;
45909;SDS011;31622;55.416;37.840;2023-10-09T22:21:18;8.43;;;3.58;;
45909;SDS011;31622;55.416;37.840;2023-10-09T22:23:45;9.80;;;4.63;;
45909;SDS011;31622;55.416;37.840;2023-10-09T22:26:11;8.48;;;3.70;;
45909;SDS011;31622;55.416;37.840;2023-10-09T22:28:40;6.90;;;3.00;;
45909;SDS011;31622;55.416;37.840;2023-10-09T22:31:09;21.17;;;4.25;;
45909;SDS011;31622;55.416;37.840;2023-10-09T22:33:41;11.27;;;3.80;;
45909;SDS011;31622;55.416;37.840;2023-10-09T22:36:19;6.95;;;3.33;;
45909;SDS011;31622;55.416;37.840;2023-10-09T22:38:51;7.00;;;3.63;;
45909;SDS011;31622;55.416;37.840;2023-10-09T22:41:21;22.73;;;3.80;;
45909;SDS011;31622;55.416;37.840;2023-10-09T22:43:48;21.65;;;4.20;;
45909;SDS011;31622;55.416;37.840;2023-10-09T22:46:13;13.52;;;3.60;;
45909;SDS011;31622;55.416;37.840;2023-10-09T22:48:39;8.00;;;3.60;;
45909;SDS011;31622;55.416;37.840;2023-10-09T22:51:13;9.27;;;3.08;;
45909;SDS011;31622;55.416;37.840;2023-10-09T22:53:39;4.32;;;3.10;;
45909;SDS011;31622;55.416;37.840;2023-10-09T22:56:05;4.45;;;2.50;;
45909;SDS011;31622;55.416;37.840;2023-10-09T22:58:32;3.63;;;2.38;;
45909;SDS011;31622;55.416;37.840;2023-10-09T23:01:03;5.57;;;2.60;;
45909;SDS011;31622;55.416;37.840;2023-10-09T23:03:40;4.55;;;2.50;;
45909;SDS011;31622;55.416;37.840;2023-10-09T23:06:12;6.07;;;2.45;;
45909;SDS011;31622;55.416;37.840;2023-10-09T23:08:58;5.38;;;2.83;;
45909;SDS011;31622;55.416;37.840;2023-10-09T23:11:31;15.05;;;4.55;;
45909;SDS011;31622;55.416;37.840;2023-10-09T23:13:58;20.75;;;5.95;;
45909;SDS011;31622;55.416;37.840;2023-10-09T23:16:56;19.80;;;6.07;;
45909;SDS011;31622;55.416;37.840;2023-10-09T23:19:33;19.25;;;5.25;;
45909;SDS011;31622;55.416;37.840;2023-10-09T23:22:06;19.98;;;5.85;;
45909;SDS011;31622;55.416;37.840;2023-10-09T23:24:41;18.35;;;6.18;;
45909;SDS011;31622;55.416;37.840;2023-10-09T23:27:17;18.45;;;5.70;;
45909;SDS011;31622;55.416;37.840;2023-10-09T23:30:06;15.48;;;4.57;;
45909;SDS011;31622;55.416;37.840;2023-10-09T23:32:38;16.20;;;5.00;;
45909;SDS011;31622;55.416;37.840;2023-10-09T23:35:13;17.88;;;4.80;;
45909;SDS011;31622;55.416;37.840;2023-10-09T23:37:48;16.35;;;4.68;;
45909;SDS011;31622;55.416;37.840;2023-10-09T23:40:35;13.25;;;4.50;;
45909;SDS011;31622;55.416;37.840;2023-10-09T23:43:08;13.07;;;4.45;;
45909;SDS011;31622;55.416;37.840;2023-10-09T23:45:38;13.52;;;4.10;;
45909;SDS011;31622;55.416;37.840;2023-10-09T23:50:49;8.88;;;3.17;;
45909;SDS011;31622;55.416;37.840;2023-10-09T23:53:24;9.48;;;3.22;;
45909;SDS011;31622;55.416;37.840;2023-10-09T23:55:59;8.90;;;3.28;;
45909;SDS011;31622;55.416;37.840;2023-10-09T23:58:48;10.45;;;3.58;;
